New Minden, Illinois
Current Conditions -  °F | °C
As of 5:55 PM on Sunday 23 Nov 2014 (Local Time) from KSAR Reporting Station
Light Rain Light Rain  
Wind Chill: 52°   Ceiling: 400
Heat Index: 52°   Visibility: 7mi
Dew Point: 52°   Wind: 0mph
Humidity: 99%   Direction: NA
Pressure: 29.31"   Gusts: NA
Location:  38.318°N, 89.3879°W
Report Text: KSAR 232355Z AUTO 00000KT 7SM -RA OVC004 11/11 A2931 RMK AO2 P0002 60015 T01110110 10120 20110
Loading
Personal Weather Stations






























Interactive Weather Map New forecast layout! Learn more

10-Day Weather Forecast

Advertisements
Track Severe Weather on mobile